TAF LDRI 260642Z 2607/2706 05025G50KT CAVOK
                 TX13/2612Z TN08/2607Z
           BECMG 2608/2611 04015KT
           TEMPO 2610/2706 VRB10KT
    PROB30 TEMPO 2610/2706 04015G25KT=
TAF AMD LDRI 251916Z 2519/2618 CNL=
TAF AMD LDRI 251916Z 2519/2618 CNL=
TAF AMD LDRI 251916Z 2519/2618 CNL=
TAF LDRI 251725Z 2518/2618 VRB02KT 9999 BKN030
                 TX15/2518Z TN05/2604Z
           BECMG 2518/2520 04020G40KT
           TEMPO 2519/2604 04030G55KT RA
    PROB30 TEMPO 2519/2522 TSRA FEW025CB BKN030
           BECMG 2609/2611 04012KT
    PROB30 TEMPO 2611/2618 04015G25KT=
TAF LDRI 251125Z 2512/2612 VRB02KT 9999 BKN030
                 TX18/2513Z TN05/2604Z
           BECMG 2518/2520 04020G40KT
           TEMPO 2519/2604 04030G55KT RA
    PROB30 TEMPO 2519/2522 TSRA FEW025CB BKN030=
TAF LDRI 250609Z 2507/2606 VRB02KT CAVOK
                 TX18/2513Z TN06/2600Z
           BECMG 2517/2519 05025G50KT
    PROB40 TEMPO 2517/2521 SHRA SCT045TCU SCT050
    PROB30 TEMPO 2517/2521 TSRA FEW045CB SCT050=
TAF AMD LDRI 241901Z 2419/2512 CNL=
TAF AMD LDRI 241901Z 2419/2512 CNL=
TAF AMD LDRI 241901Z 2419/2512 CNL=